createdAt,value
2019-05-28T10:26:17.395Z,1.33
2019-05-28T10:31:18.279Z,1.10
2019-05-28T10:36:34.281Z,1.63
2019-05-28T10:41:22.001Z,1.10
2019-05-28T10:46:22.900Z,1.20
2019-05-28T10:51:23.792Z,3.00
2019-05-28T10:56:24.801Z,1.20
2019-05-28T11:01:25.690Z,0.90
2019-05-28T11:06:26.587Z,1.10
2019-05-28T11:11:27.459Z,1.03
2019-05-28T11:16:28.329Z,1.27
2019-05-28T11:21:29.198Z,1.13
2019-05-28T11:26:30.075Z,1.30
2019-05-28T11:31:30.964Z,1.10
2019-05-28T11:36:31.836Z,1.50
2019-05-28T11:41:42.133Z,2.73
2019-05-28T11:46:35.584Z,1.80
2019-05-28T11:51:36.493Z,2.23
2019-05-28T11:56:37.420Z,2.20
2019-05-28T12:01:38.385Z,2.33
2019-05-28T12:06:39.901Z,2.07
2019-05-28T12:11:41.000Z,1.83
2019-05-28T12:16:41.887Z,2.67
2019-05-28T12:21:42.751Z,1.83
2019-05-28T12:26:43.638Z,2.00
2019-05-28T12:31:44.518Z,3.07
2019-05-28T12:36:45.404Z,1.60
2019-05-28T12:42:01.689Z,2.77
2019-05-28T12:46:54.001Z,1.70
2019-05-28T12:51:55.379Z,2.00
2019-05-28T12:56:56.277Z,1.40
2019-05-28T13:02:00.188Z,1.33
2019-05-28T13:07:02.465Z,1.20
2019-05-28T13:12:03.545Z,1.17
2019-05-28T13:17:04.416Z,1.10
2019-05-28T13:22:05.512Z,0.90
2019-05-28T13:27:17.736Z,1.30
2019-05-28T13:32:09.217Z,2.13
2019-05-28T13:37:10.095Z,2.30
2019-05-28T13:42:10.974Z,2.33
2019-05-28T13:47:31.916Z,3.20
2019-05-28T13:52:14.851Z,1.87
2019-05-28T13:57:15.847Z,2.27
2019-05-28T14:02:16.723Z,1.90
2019-05-28T14:07:17.635Z,2.20
2019-05-28T14:12:18.639Z,1.77
2019-05-28T14:17:19.505Z,1.50
2019-05-28T14:22:33.545Z,1.80
2019-05-28T14:27:23.158Z,2.33
2019-05-28T14:32:24.043Z,1.40
2019-05-28T14:37:25.235Z,2.03
2019-05-28T14:42:26.211Z,1.83
2019-05-28T14:47:27.123Z,2.10
2019-05-28T14:52:28.115Z,1.63
2019-05-28T14:57:29.107Z,1.50
2019-05-28T15:02:30.016Z,2.70
2019-05-28T15:07:30.889Z,1.57
2019-05-28T15:12:31.798Z,1.23
2019-05-28T15:17:32.772Z,1.00
2019-05-28T15:22:33.746Z,1.30
2019-05-28T15:27:34.634Z,1.73
2019-05-28T15:32:35.513Z,1.80
2019-05-28T15:37:36.396Z,3.47
2019-05-28T15:42:37.269Z,4.17
2019-05-28T15:47:38.272Z,4.87
2019-05-28T15:52:39.128Z,5.93
2019-05-28T15:57:40.024Z,8.20
2019-05-28T16:02:40.901Z,4.60
2019-05-28T16:07:41.783Z,4.63
2019-05-28T16:12:42.689Z,6.37
2019-05-28T16:17:43.663Z,5.53
2019-05-28T16:22:45.118Z,5.23
2019-05-28T16:27:46.003Z,6.63
2019-05-28T16:32:47.008Z,8.27
2019-05-28T16:37:48.105Z,4.90
2019-05-28T16:42:48.992Z,4.97
2019-05-28T16:47:49.851Z,6.97
2019-05-28T16:52:50.724Z,3.70
2019-05-28T16:57:51.750Z,5.33
2019-05-28T17:02:52.692Z,3.23
2019-05-28T17:07:54.257Z,7.00
2019-05-28T17:12:55.212Z,3.33
2019-05-28T17:17:56.099Z,3.10
2019-05-28T17:22:56.978Z,5.93
2019-05-28T17:27:57.852Z,7.30
2019-05-28T17:33:00.749Z,6.20
2019-05-28T17:38:01.658Z,5.17
2019-05-28T17:43:02.610Z,4.37
2019-05-28T17:48:03.507Z,4.00
2019-05-28T17:53:04.408Z,4.40
2019-05-28T17:58:05.419Z,5.53
2019-05-28T18:03:06.328Z,5.33
2019-05-28T18:08:07.214Z,7.07
2019-05-28T18:13:08.107Z,4.00
2019-05-28T18:18:09.009Z,3.13
2019-05-28T18:23:10.271Z,4.00
2019-05-28T18:28:11.303Z,2.87
2019-05-28T18:33:12.852Z,2.80
2019-05-28T18:38:13.743Z,2.17
2019-05-28T18:43:14.603Z,2.47
2019-05-28T18:48:15.559Z,4.37
2019-05-28T18:53:16.403Z,5.90
2019-05-28T18:58:17.504Z,5.93
2019-05-28T19:03:18.464Z,4.10
2019-05-28T19:08:19.336Z,3.50
2019-05-28T19:13:20.218Z,2.77
2019-05-28T19:18:21.096Z,5.47
2019-05-28T19:23:22.076Z,3.97
2019-05-28T19:28:23.576Z,3.80
2019-05-28T19:33:24.460Z,4.27
2019-05-28T19:38:26.151Z,4.50
2019-05-28T19:43:27.051Z,4.27
2019-05-28T19:48:28.682Z,4.63
2019-05-28T19:53:29.660Z,4.97
2019-05-28T19:58:30.551Z,5.10
